Preview of NWS' New Version of Forecast
This preview is not operational and should not be used for support decisions.
Latest weather observations around

Shoshone (CMP28)

Using English Units (Switch to International System of Units)
Date/ Time (PDT) Wind (mph) Vis. (mi) Weather Sky Cond. Temp (°F) Rel. Humidity Wind Chill (°F) Heat Index (°F) Pressure Precip. (in)
Air Dwpt 6 hour Altimeter (inHg) Sea level (inHg) 1 hr 3 hr 6 hr
Max Min
Jun 18 12:00 NW 3   Clear   99 40     13%   94          
Jun 18 11:00 NW 4   Clear   96 41     15%   92          
Jun 18 10:00 NW 4   Clear   93 42     17%   89          
Jun 18 09:00 NNW 6   Clear   88 43     21%   85          
Jun 18 08:00 NW 6   Clear   86 44     23%   83          
Jun 18 07:00 WNW 4   Clear   81 43     26%   80          
Jun 18 06:00 WNW 4   Clear   79 43     28%   78          
Jun 18 05:00 WNW 5   Clear   80 43     27%   79          
Jun 18 04:00 WNW 3   Clear   81 43     26%   80          
Jun 18 03:00 NW 4   Clear   87 42     21%   84          
Jun 18 02:00 NW 4   Clear   87 42     21%   84          
Jun 18 01:00 NW 4   Clear   87 42     21%   84          
Jun 18 00:00 NW 4   Clear   87 42     21%   84          
Jun 17 23:00 SSW 3   Clear   90 42     19%   86          
Jun 17 22:00 NNW 3   Clear   92 39     16%   88          
Jun 17 21:00 NE 7   Clear   94 38     14%   90          
Jun 17 20:00 ENE 5   Clear   98 39     13%   93          
Jun 17 19:00 NNW 2   Clear   101 39     12%   96 29.9        
Jun 17 18:00 NW 4   Clear   103 41     12%   98          
Jun 17 17:00 SW 3   Clear   104 41     12%   99          
Jun 17 16:00 S 4   Clear   103 41     12%   98          
Jun 17 15:00 S 5   Clear   102 40     12%   97          
Jun 17 14:00 SSW 4   Clear   101 39     12%   96          
Jun 17 13:00 S 4   Clear   99 41     14%   95          
Jun 17 12:00 N 4   Clear   97 42     15%   93          
Jun 17 11:00 W 2   Clear   96 43     16%   92          
Jun 17 10:00 WNW 4   Clear   92 42     18%   88          
Jun 17 09:00 NNW 8   Clear   88 44     22%   85          
Jun 17 08:00 NE 1   Clear   83 45     26%   81          
Jun 17 07:00 NE 1   Clear   73 44     36%   72          
Jun 17 06:00 ENE 1   Clear   72 44     36%   71          
Jun 17 05:00 NNW 2   Clear   75 43     32%   74          
Jun 17 04:00 WNW 2   Clear   80 43     27%   79          
Jun 17 03:00 WNW 5   Clear   87 42     21%   84          
Jun 17 02:00 WNW 5   Clear   87 42     21%   84          
Jun 17 01:00 WNW 5   Clear   87 42     21%   84          
Jun 17 00:00 WNW 5   Clear   87 42     21%   84          
Jun 16 23:00 SW 4   Clear   92 36     14%   88          
Jun 16 22:00 S 10   Clear   95 30     10%   89 29.86        
Jun 16 21:00 SSE 4   Clear   96 31     10%   90          
Jun 16 20:00 SSE 1   Clear   97 36     12%   92          
Jun 16 19:00 SSE 2   Clear   103 36     10%   97          
Jun 16 18:00 S 6   Clear   103 36     10%   97          
Jun 16 17:00 S 5   Clear   103 36     10%   97          
Jun 16 16:00 SSE 5   Clear   103 36     10%   97 29.88        
Jun 16 15:00 SSE 5   Clear   102 38     11%   96          
Jun 16 14:00 SSE 4   Clear   99 37     12%   94          
Jun 16 13:00 SSE 3   Clear   99 40     13%   94 29.96        
Jun 16 12:00 SSE 5   Clear   94 43     17%   90          
Jun 16 11:00 SSE 5   Clear   91 44     20%   87          
Jun 16 10:00 SSE 3   Clear   91 46     21%   87          
Jun 16 09:00 SSE 4   Clear   88 47     24%   85          
Jun 16 08:00 ESE 2   Clear   84 47     28%   82          
Jun 16 07:00 ENE 2   Clear   80 45     29%   79          
Jun 16 06:00 E 2   Clear   81 45     28%   80          
Jun 16 05:00 SSE 3   Clear   85 45     25%   82          
Jun 16 04:00 SSE 7   Clear   87 45     23%   84 29.94        
Notice The following observation data may not be complete
Jun 16 03:00 S 3   Clear     37      %     29.93        
Notice The following observation data may not be complete
Jun 16 02:00 S 3   Clear     37      %     29.93        
Jun 16 01:00 S 3   Clear   93 37     14%   89 29.93        
Jun 16 00:00 S 3   Clear   93 37     14%   89          
Jun 15 23:00 SW 10   Clear   97 36     12%   92 29.9        
Jun 15 22:00 SW 10   Clear   98 37     12%   93 29.89        
Jun 15 21:00 Calm   Clear   96 35     12%   91 29.88        
Jun 15 20:00 SSE 2   Clear   100 36     11%   94          
Jun 15 19:00 SSE 2   Clear   106 38     10%   100 29.87        
Jun 15 18:00 S 4   Clear   107 36     9%   101 29.89        
Jun 15 17:00 SSW 4   Clear   108 37     9%   102          
Jun 15 16:00 SSE 5   Clear   107 36     9%   101          
Jun 15 15:00 SE 3   Clear   107 39     10%   101 29.96        
Jun 15 14:00 SSE 3   Clear   105 40     11%   100          
Jun 15 13:00 SSE 3   Clear   102 40     12%   97 30.01        
Jun 15 12:00 SSE 2   Clear   99 40     13%   94          
May 15 09:00 S 2   Clear   77 41     28%   76          
Notice The following observation data may not be complete
May 14 03:00 ENE 2   Clear     35      %     30.05        
May 14 02:00 ENE 2   Clear   73 35     25%   71 30.05        
May 13 02:00 SSW 4   Clear   70 38     31%     30.04        
Notice The following observation data may not be complete
May 12 17:00     Clear            %              
May 12 01:00 NNW 11   Clear   70 34     26%     29.89